createdAt,value
2023-01-21T00:03:06.341Z,-0.10
2023-01-21T00:06:49.214Z,-0.10
2023-01-21T00:10:31.008Z,-0.10
2023-01-21T00:14:12.829Z,-0.10
2023-01-21T00:17:54.602Z,-0.10
2023-01-21T00:21:36.543Z,-0.20
2023-01-21T00:25:18.288Z,-0.20
2023-01-21T00:29:00.025Z,-0.20
2023-01-21T00:32:41.838Z,-0.20
2023-01-21T00:36:29.322Z,-0.30
2023-01-21T00:40:11.507Z,-0.30
2023-01-21T00:43:53.357Z,-0.30
2023-01-21T00:47:35.208Z,-0.30
2023-01-21T00:51:18.004Z,-0.40
2023-01-21T00:54:59.780Z,-0.40
2023-01-21T00:58:43.489Z,-0.50
2023-01-21T01:02:25.885Z,-0.50
2023-01-21T01:06:14.455Z,-0.60
2023-01-21T01:10:02.145Z,-0.60
2023-01-21T01:13:44.529Z,-0.70
2023-01-21T01:17:26.572Z,-0.70
2023-01-21T01:21:15.504Z,-0.70
2023-01-21T01:24:57.584Z,-0.70
2023-01-21T01:28:42.371Z,-0.80
2023-01-21T01:32:24.300Z,-0.90
2023-01-21T01:36:09.816Z,-0.90
2023-01-21T01:39:55.738Z,-1.00
2023-01-21T01:43:49.612Z,-1.00
2023-01-21T01:47:39.201Z,-1.10
2023-01-21T01:51:28.182Z,-1.20
2023-01-21T01:55:11.221Z,-1.20
2023-01-21T01:59:05.028Z,-1.30
2023-01-21T02:03:08.251Z,-1.30
2023-01-21T02:06:52.475Z,-1.30
2023-01-21T02:10:34.666Z,-1.40
2023-01-21T02:14:18.802Z,-1.40
2023-01-21T02:18:39.505Z,-1.40
2023-01-21T02:22:50.688Z,-1.40
2023-01-21T02:26:38.215Z,-1.50
2023-01-21T02:30:25.226Z,-1.50
2023-01-21T02:34:26.897Z,-1.50
2023-01-21T02:38:32.455Z,-1.50
2023-01-21T02:42:36.711Z,-1.60
2023-01-21T02:46:37.606Z,-1.70
2023-01-21T02:50:26.484Z,-1.90
2023-01-21T02:54:35.536Z,-1.90
2023-01-21T02:58:20.454Z,-1.90
2023-01-21T03:02:26.838Z,-1.90
2023-01-21T03:06:39.403Z,-1.90
2023-01-21T03:10:31.919Z,-1.90
2023-01-21T03:14:45.537Z,-2.00
2023-01-21T03:18:35.480Z,-2.00
2023-01-21T03:22:22.280Z,-2.10
2023-01-21T03:26:05.554Z,-2.10
2023-01-21T03:29:49.721Z,-2.10
2023-01-21T03:33:34.723Z,-2.10
2023-01-21T03:37:36.855Z,-2.20
2023-01-21T03:41:22.532Z,-2.20
2023-01-21T03:45:13.328Z,-2.30
2023-01-21T03:49:04.539Z,-2.30
2023-01-21T03:52:46.895Z,-2.30
2023-01-21T03:56:29.260Z,-2.30
2023-01-21T04:00:12.284Z,-2.30
2023-01-21T04:03:54.018Z,-2.40
2023-01-21T04:07:36.026Z,-2.40
2023-01-21T04:11:18.026Z,-2.40
2023-01-21T04:14:59.746Z,-2.40
2023-01-21T04:18:41.490Z,-2.50
2023-01-21T04:22:23.630Z,-2.50
2023-01-21T04:26:05.629Z,-2.50
2023-01-21T04:29:47.443Z,-2.50
2023-01-21T04:33:30.684Z,-2.60
2023-01-21T04:37:12.423Z,-2.60
2023-01-21T04:40:54.352Z,-2.60
2023-01-21T04:44:36.103Z,-2.60
2023-01-21T04:48:18.207Z,-2.70
2023-01-21T04:51:59.954Z,-2.70
2023-01-21T04:55:41.672Z,-2.70
2023-01-21T04:59:23.492Z,-2.70
2023-01-21T05:03:12.817Z,-2.80
2023-01-21T05:07:02.688Z,-2.80
2023-01-21T05:10:44.494Z,-2.80
2023-01-21T05:14:26.301Z,-2.80
2023-01-21T05:18:08.120Z,-2.80
2023-01-21T05:21:49.892Z,-2.70
2023-01-21T05:25:31.660Z,-2.60
2023-01-21T05:29:13.415Z,-2.50
2023-01-21T05:32:56.694Z,-2.40
2023-01-21T05:36:38.823Z,-2.30
2023-01-21T05:40:20.693Z,-2.30
2023-01-21T05:44:05.337Z,-2.30
2023-01-21T05:47:47.478Z,-2.30
2023-01-21T05:51:29.344Z,-2.30
2023-01-21T05:55:11.122Z,-2.30
2023-01-21T05:58:57.343Z,-2.40
2023-01-21T06:02:40.763Z,-2.40
2023-01-21T06:06:22.776Z,-2.50
2023-01-21T06:10:05.051Z,-2.50
2023-01-21T06:13:46.885Z,-2.60
2023-01-21T06:17:28.690Z,-2.60
2023-01-21T06:21:10.469Z,-2.70
2023-01-21T06:24:52.267Z,-2.70
2023-01-21T06:28:34.044Z,-2.80
2023-01-21T06:32:16.653Z,-2.80
2023-01-21T06:35:58.495Z,-2.80
2023-01-21T06:39:45.691Z,-2.80
2023-01-21T06:43:28.596Z,-2.70
2023-01-21T06:47:15.745Z,-2.80
2023-01-21T06:51:04.938Z,-2.80
2023-01-21T06:54:46.792Z,-2.50
2023-01-21T06:58:28.730Z,-1.30
2023-01-21T07:02:12.910Z,-1.20
2023-01-21T07:05:59.789Z,-1.30
2023-01-21T07:09:41.649Z,-1.40
2023-01-21T07:13:23.651Z,-1.50
2023-01-21T07:17:05.451Z,-1.60
2023-01-21T07:20:47.207Z,-1.70
2023-01-21T07:24:28.964Z,-1.80
2023-01-21T07:28:10.722Z,-1.80
2023-01-21T07:31:53.827Z,-1.90
2023-01-21T07:35:37.665Z,-2.00
2023-01-21T07:39:19.679Z,-2.10
2023-01-21T07:43:01.655Z,-2.20
2023-01-21T07:46:43.490Z,-2.30
2023-01-21T07:50:37.640Z,-2.40
2023-01-21T07:54:19.394Z,-2.60
2023-01-21T07:58:01.192Z,-2.70
2023-01-21T08:01:44.330Z,-2.80
2023-01-21T08:05:37.406Z,-2.80
2023-01-21T08:09:20.461Z,-2.80
2023-01-21T08:13:03.752Z,-2.70
2023-01-21T08:16:45.726Z,-2.70
2023-01-21T08:20:27.669Z,-2.60
2023-01-21T08:24:12.895Z,-2.50
2023-01-21T08:27:54.660Z,-2.50
2023-01-21T08:31:36.569Z,-2.40
2023-01-21T08:35:18.699Z,-2.30
2023-01-21T08:39:05.726Z,-2.20
2023-01-21T08:42:47.624Z,-2.10
2023-01-21T08:46:29.523Z,-2.10
2023-01-21T08:50:11.600Z,-2.00
2023-01-21T08:53:53.700Z,-1.90
2023-01-21T08:57:35.439Z,-1.80
2023-01-21T09:01:17.272Z,-1.70
2023-01-21T09:04:59.181Z,-1.70
2023-01-21T09:08:42.099Z,-1.60
2023-01-21T09:12:23.873Z,-1.50
2023-01-21T09:16:17.440Z,-1.40
2023-01-21T09:19:59.222Z,-1.30
2023-01-21T09:23:41.489Z,-1.20
2023-01-21T09:27:27.290Z,-1.10
2023-01-21T09:31:11.837Z,-1.00
2023-01-21T09:34:53.630Z,-0.90
2023-01-21T09:38:35.688Z,-0.80
2023-01-21T09:42:21.922Z,-0.70
2023-01-21T09:46:10.617Z,-0.70
2023-01-21T09:50:03.457Z,-0.60
2023-01-21T09:53:51.615Z,-0.50
2023-01-21T09:57:51.285Z,-0.40
2023-01-21T10:01:37.000Z,-0.30
2023-01-21T10:05:24.611Z,-0.30
2023-01-21T10:09:46.973Z,-0.20
2023-01-21T10:13:37.868Z,-0.20
2023-01-21T10:17:37.484Z,-0.10
2023-01-21T10:21:37.069Z,0.00
2023-01-21T10:25:22.961Z,0.10
2023-01-21T10:29:05.342Z,0.10
2023-01-21T10:32:50.933Z,0.20
2023-01-21T10:36:48.656Z,0.30
2023-01-21T10:40:47.150Z,0.40
2023-01-21T10:44:35.261Z,0.50
2023-01-21T10:48:29.340Z,0.50
2023-01-21T10:52:14.749Z,0.50
2023-01-21T10:56:29.663Z,0.60
2023-01-21T11:00:34.016Z,0.70
2023-01-21T11:04:25.106Z,0.80
2023-01-21T11:08:08.324Z,0.90
2023-01-21T11:11:50.060Z,0.90
2023-01-21T11:15:33.728Z,1.00
2023-01-21T11:19:30.898Z,1.10
2023-01-21T11:23:33.525Z,1.10
2023-01-21T11:27:35.456Z,1.30
2023-01-21T11:31:24.933Z,1.50
2023-01-21T11:35:21.723Z,1.60
2023-01-21T11:39:09.747Z,1.70
2023-01-21T11:42:54.444Z,1.90
2023-01-21T11:46:38.706Z,2.00
2023-01-21T11:50:35.868Z,2.10
2023-01-21T11:54:22.742Z,2.20
2023-01-21T11:58:04.881Z,2.30
2023-01-21T12:02:17.070Z,2.30
2023-01-21T12:06:00.167Z,2.40
2023-01-21T12:09:55.163Z,2.50
2023-01-21T12:13:59.624Z,2.50
2023-01-21T12:17:49.734Z,2.50
2023-01-21T12:21:55.489Z,2.60
2023-01-21T12:25:47.606Z,2.70
2023-01-21T12:30:14.052Z,2.70
2023-01-21T12:34:13.000Z,2.80
2023-01-21T12:38:03.952Z,2.80
2023-01-21T12:42:14.988Z,2.80
2023-01-21T12:46:10.554Z,2.90
2023-01-21T12:49:58.994Z,2.90
2023-01-21T12:53:59.367Z,3.00
2023-01-21T12:58:05.876Z,3.00
2023-01-21T13:02:52.928Z,3.10
2023-01-21T13:06:53.557Z,3.10
2023-01-21T13:10:44.150Z,3.10
2023-01-21T13:14:48.508Z,3.20
2023-01-21T13:18:34.859Z,3.30
2023-01-21T13:22:43.925Z,3.30
2023-01-21T13:26:32.583Z,3.30
2023-01-21T13:30:21.101Z,3.40
2023-01-21T13:34:22.049Z,3.40
2023-01-21T13:38:27.427Z,3.40
2023-01-21T13:42:34.039Z,3.40
2023-01-21T13:46:39.292Z,3.40
2023-01-21T13:50:43.835Z,3.40
2023-01-21T13:54:38.462Z,3.40
2023-01-21T13:58:43.308Z,3.40
2023-01-21T14:03:01.955Z,3.40
2023-01-21T14:06:49.809Z,3.40
2023-01-21T14:10:41.326Z,3.30
2023-01-21T14:15:04.167Z,3.40
2023-01-21T14:18:45.876Z,3.40
2023-01-21T14:23:06.295Z,3.30
2023-01-21T14:27:00.486Z,3.30
2023-01-21T14:30:47.978Z,3.30
2023-01-21T14:35:01.704Z,3.20
2023-01-21T14:38:55.199Z,3.20
2023-01-21T14:42:41.268Z,3.20
2023-01-21T14:46:28.920Z,3.20
2023-01-21T14:50:11.085Z,3.20
2023-01-21T14:54:00.048Z,3.20
2023-01-21T14:57:42.576Z,3.10
2023-01-21T15:01:31.452Z,3.10
2023-01-21T15:05:35.900Z,3.00
2023-01-21T15:09:24.888Z,3.00
2023-01-21T15:13:37.469Z,3.00
2023-01-21T15:17:45.372Z,2.90
2023-01-21T15:21:44.757Z,2.90
2023-01-21T15:25:36.816Z,2.90
2023-01-21T15:29:36.940Z,2.90
2023-01-21T15:33:18.852Z,2.80
2023-01-21T15:37:08.476Z,2.80
2023-01-21T15:41:09.889Z,2.80
2023-01-21T15:45:29.283Z,2.80
2023-01-21T15:49:44.813Z,2.70
2023-01-21T15:54:10.672Z,2.70
2023-01-21T15:58:07.423Z,2.70
2023-01-21T16:02:21.385Z,2.70
2023-01-21T16:06:21.671Z,2.60
2023-01-21T16:10:16.338Z,2.50
2023-01-21T16:14:13.830Z,2.50
2023-01-21T16:18:20.871Z,2.50
2023-01-21T16:22:07.570Z,2.40
2023-01-21T16:25:52.036Z,2.40
2023-01-21T16:29:38.243Z,2.40
2023-01-21T16:33:20.110Z,2.30
2023-01-21T16:37:05.941Z,2.30
2023-01-21T16:40:49.779Z,2.20
2023-01-21T16:44:35.666Z,2.20
2023-01-21T16:48:26.332Z,2.10
2023-01-21T16:52:21.836Z,2.10
2023-01-21T16:56:03.734Z,2.00
2023-01-21T16:59:53.653Z,2.00
2023-01-21T17:03:36.143Z,2.00
2023-01-21T17:07:24.185Z,1.90
2023-01-21T17:11:10.510Z,2.00
2023-01-21T17:15:02.659Z,1.90
2023-01-21T17:18:52.330Z,1.90
2023-01-21T17:22:35.410Z,1.90
2023-01-21T17:26:20.399Z,1.80
2023-01-21T17:30:31.998Z,1.80
2023-01-21T17:34:32.227Z,1.80
2023-01-21T17:38:29.370Z,1.80
2023-01-21T17:42:18.981Z,1.70
2023-01-21T17:46:02.515Z,1.70
2023-01-21T17:49:45.645Z,1.70
2023-01-21T17:53:29.390Z,1.70
2023-01-21T17:57:34.762Z,1.60
2023-01-21T18:01:17.526Z,1.60
2023-01-21T18:04:59.542Z,1.50
2023-01-21T18:08:41.279Z,1.60
2023-01-21T18:12:23.101Z,1.50
2023-01-21T18:16:05.183Z,1.50
2023-01-21T18:19:47.126Z,1.50
2023-01-21T18:23:30.079Z,1.50
2023-01-21T18:27:12.283Z,1.50
2023-01-21T18:30:56.432Z,1.50
2023-01-21T18:34:38.347Z,1.50
2023-01-21T18:38:28.193Z,1.40
2023-01-21T18:42:19.887Z,1.40
2023-01-21T18:46:04.409Z,1.40
2023-01-21T18:49:49.376Z,1.40
2023-01-21T18:53:31.243Z,1.30
2023-01-21T18:57:16.669Z,1.30
2023-01-21T19:00:58.819Z,1.20
2023-01-21T19:04:40.859Z,1.10
2023-01-21T19:08:24.899Z,1.10
2023-01-21T19:12:10.601Z,1.10
2023-01-21T19:15:53.462Z,1.10
2023-01-21T19:19:35.331Z,1.10
2023-01-21T19:23:18.328Z,1.10
2023-01-21T19:27:00.379Z,1.00
2023-01-21T19:30:46.526Z,1.00
2023-01-21T19:34:28.348Z,1.00
2023-01-21T19:38:13.482Z,1.10
2023-01-21T19:42:08.024Z,1.00
2023-01-21T19:45:52.259Z,1.10
2023-01-21T19:49:34.183Z,1.00
2023-01-21T19:53:18.399Z,1.00
2023-01-21T19:57:00.282Z,1.00
2023-01-21T20:00:42.020Z,0.90
2023-01-21T20:04:23.769Z,0.70
2023-01-21T20:08:06.252Z,0.70
2023-01-21T20:11:48.111Z,0.70
2023-01-21T20:15:32.516Z,0.70
2023-01-21T20:19:16.996Z,0.70
2023-01-21T20:23:01.137Z,0.70
2023-01-21T20:26:44.216Z,0.70
2023-01-21T20:30:30.606Z,0.60
2023-01-21T20:34:14.993Z,0.70
2023-01-21T20:37:57.133Z,0.70
2023-01-21T20:41:40.846Z,0.70
2023-01-21T20:45:28.928Z,0.70
2023-01-21T20:49:11.874Z,0.70
2023-01-21T20:52:54.204Z,0.60
2023-01-21T20:56:36.055Z,0.60
2023-01-21T21:00:25.200Z,0.50
2023-01-21T21:04:06.905Z,0.40
2023-01-21T21:07:48.672Z,0.40
2023-01-21T21:11:30.428Z,0.40
2023-01-21T21:15:13.033Z,0.40
2023-01-21T21:18:56.178Z,0.40
2023-01-21T21:22:40.021Z,0.30
2023-01-21T21:26:23.272Z,0.20
2023-01-21T21:30:06.010Z,0.10
2023-01-21T21:33:47.819Z,0.10
2023-01-21T21:37:29.627Z,0.00
2023-01-21T21:41:41.395Z,0.00
2023-01-21T21:45:23.325Z,-0.10
2023-01-21T21:49:05.044Z,-0.10
2023-01-21T21:52:46.792Z,-0.10
2023-01-21T21:56:28.572Z,-0.10
2023-01-21T22:00:12.230Z,-0.10
2023-01-21T22:03:54.193Z,-0.10
2023-01-21T22:07:38.303Z,-0.10
2023-01-21T22:11:21.411Z,-0.10
2023-01-21T22:15:03.282Z,-0.10
2023-01-21T22:18:45.327Z,-0.10
2023-01-21T22:22:27.059Z,-0.10
2023-01-21T22:26:13.077Z,-0.10
2023-01-21T22:29:54.832Z,-0.10
2023-01-21T22:33:38.029Z,-0.10
2023-01-21T22:37:19.821Z,-0.20
2023-01-21T22:41:02.077Z,-0.20
2023-01-21T22:44:43.848Z,-0.20
2023-01-21T22:48:26.628Z,-0.30
2023-01-21T22:52:08.464Z,-0.40
2023-01-21T22:55:55.044Z,-0.40
2023-01-21T22:59:36.935Z,-0.50
2023-01-21T23:03:19.115Z,-0.50
2023-01-21T23:07:00.870Z,-0.50
2023-01-21T23:10:43.351Z,-0.50
2023-01-21T23:14:25.099Z,-0.50
2023-01-21T23:18:06.895Z,-0.50
2023-01-21T23:21:48.621Z,-0.60
2023-01-21T23:25:30.404Z,-0.70
2023-01-21T23:29:12.273Z,-0.70
2023-01-21T23:32:54.043Z,-0.70
2023-01-21T23:36:35.792Z,-0.70
2023-01-21T23:40:17.830Z,-0.80
2023-01-21T23:44:01.384Z,-0.70
2023-01-21T23:47:43.749Z,-0.80
2023-01-21T23:51:26.715Z,-0.80
2023-01-21T23:55:10.209Z,-0.80
2023-01-21T23:58:52.450Z,-0.80
